메인 페이지
METAR-TAF:

METAR-TAF

공항 :

우수아이아, 아르헨티나

위도: 54-48S, 경도: 068-19W, 고도: 16m

현재 날씨관측

예보는 1 시간 16분 전, 19:00시(UTC)에 발표되었습니다.
남서10kt
온도 5°C
습도 48%
기압 1008 hPa
시정 10km 이상
고도 4500ft 상공 구름 많음

METAR: SAWH 181900Z 23010KT 9999 BKN045 05/M05 Q1008

시각: 17:16 (20:16 UTC)

예보

예보는 3 시간 16분 전, 17:00시(UTC)에 발표되었습니다.
예보 대상 시간: 18일 18시부터 19일 18시까지 (UTC)
여러 방향의 바람 5kt
시정 10km 이상
고도 3000ft 상공 구름 보통
고도 9000ft 상공 구름 보통

TAF: SAWH 181700Z 1818/1918 VRB05KT 9999 SCT030 SCT090 TX04/1818 TNM02/1911

4,000개 이상의 공항 관측 자료 및 예보 (METAR 및 TAF 보고).

지도상에서 검색 가능한 기상관측소가 노란 점과 빨간 점으로 표시되어 있습니다.

기상관측소 명을 보려면 표시 위로 마우스를 이동하세요.

날씨 관측과 예보를 보려면 클릭하세요.

지도 변경 : 확대하려면 엑스 표시가 있는 녹색 버튼, 축소하려면 빼기 표시가 있는 녹색 버튼, 다음 페이지의 지도를 보려면 녹색 화살표를 클릭하세요.


METAR-TAF: